Time;durP1;ratioP1;P1;durP2;ratioP2;P2;SDS_P1;SDS_P2;PMS_P1;PMS_P2;Temp;Humidity;BMP_temperature;BMP_pressure;BME280_temperature;BME280_humidity;BME280_pressure;Samples;Min_cycle;Max_cycle;Signal;HPM_P1;HPM_P2
2021/03/31 00:01:53;;;;;;;0.40;0.10;;;16.00;50.50;;;;;;4994736;28;20042;-80
2021/03/31 00:04:19;;;;;;;3.22;0.70;;;15.90;50.60;;;;;;4994343;28;20061;-81
2021/03/31 00:06:45;;;;;;;0.35;0.13;;;15.90;50.60;;;;;;4994551;28;20035;-80
2021/03/31 00:09:11;;;;;;;1.17;0.52;;;15.90;50.70;;;;;;4995221;28;20499;-80
2021/03/31 00:11:37;;;;;;;0.68;0.25;;;15.90;50.80;;;;;;4995175;28;20042;-80
2021/03/31 00:14:04;;;;;;;2.15;0.82;;;15.80;50.90;;;;;;4995323;28;20038;-81
2021/03/31 00:16:30;;;;;;;1.27;0.77;;;15.70;51.00;;;;;;4994586;28;20041;-80
2021/03/31 00:18:56;;;;;;;0.60;0.17;;;15.70;51.10;;;;;;4990174;28;20026;-80
2021/03/31 00:21:22;;;;;;;1.23;0.30;;;15.60;51.20;;;;;;4995140;28;20037;-80
2021/03/31 00:23:48;;;;;;;0.82;0.20;;;15.60;51.40;;;;;;4992978;28;20041;-81
2021/03/31 00:26:14;;;;;;;7.05;0.40;;;15.50;51.40;;;;;;4995216;28;20050;-80
2021/03/31 00:28:42;;;;;;;3.13;0.80;;;15.50;51.50;;;;;;4993769;28;20030;-80
2021/03/31 00:31:08;;;;;;;1.60;0.55;;;15.40;51.50;;;;;;4992390;28;20054;-81
2021/03/31 00:33:34;;;;;;;2.65;0.30;;;15.40;51.50;;;;;;4994577;28;20026;-81
2021/03/31 00:36:01;;;;;;;0.93;0.22;;;15.40;51.50;;;;;;4993474;28;20034;-80
2021/03/31 00:38:27;;;;;;;1.23;0.35;;;15.40;51.50;;;;;;4994418;28;20030;-80
2021/03/31 00:40:53;;;;;;;2.53;0.45;;;15.40;51.60;;;;;;4994777;28;20395;-80
2021/03/31 00:43:23;;;;;;;2.00;0.45;;;15.40;51.60;;;;;;4994700;28;20038;-80
2021/03/31 00:45:49;;;;;;;0.50;0.25;;;15.30;51.70;;;;;;4992879;28;20034;-80
2021/03/31 00:48:16;;;;;;;2.85;0.93;;;15.30;51.80;;;;;;4993348;28;20037;-80
2021/03/31 00:50:46;;;;;;;2.17;0.88;;;15.30;51.90;;;;;;4994176;28;20518;-80
2021/03/31 00:53:36;;;;;;;0.73;0.32;;;15.30;52.00;;;;;;4994473;28;20026;-81
2021/03/31 00:56:03;;;;;;;1.67;0.57;;;15.20;52.10;;;;;;4993156;28;20045;-79
2021/03/31 00:58:29;;;;;;;1.45;0.55;;;15.20;52.10;;;;;;4993097;28;20497;-80
2021/03/31 01:00:55;;;;;;;4.80;0.75;;;15.20;52.10;;;;;;4992997;28;20034;-80
2021/03/31 01:03:21;;;;;;;0.98;0.35;;;15.20;52.50;;;;;;4994206;28;20027;-80
2021/03/31 01:05:48;;;;;;;1.58;0.77;;;15.10;52.70;;;;;;4994239;28;20620;-81
2021/03/31 01:08:14;;;;;;;0.45;0.20;;;15.00;52.80;;;;;;4994162;28;20027;-80
2021/03/31 01:10:45;;;;;;;3.33;0.57;;;14.90;52.80;;;;;;4994041;28;20038;-81
2021/03/31 01:13:38;;;;;;;3.53;1.02;;;14.90;52.80;;;;;;4992279;28;20022;-80
2021/03/31 01:16:04;;;;;;;3.47;0.35;;;14.90;52.90;;;;;;4989605;28;20039;-80
2021/03/31 01:18:57;;;;;;;1.40;0.70;;;14.90;52.80;;;;;;4994166;28;20034;-80
2021/03/31 01:21:33;;;;;;;1.63;0.40;;;14.90;52.80;;;;;;4992989;28;20026;-80
2021/03/31 01:24:33;;;;;;;3.97;0.60;;;14.90;53.00;;;;;;4992805;28;20041;-82
2021/03/31 01:27:16;;;;;;;4.05;0.95;;;14.90;52.70;;;;;;4992868;28;20038;-80
2021/03/31 01:30:05;;;;;;;8.13;0.70;;;14.90;52.70;;;;;;4992561;28;20034;-80
2021/03/31 01:32:34;;;;;;;1.08;0.50;;;14.90;52.60;;;;;;4993283;28;20034;-80
2021/03/31 01:35:03;;;;;;;2.15;0.60;;;14.90;52.60;;;;;;4993846;28;20035;-82
2021/03/31 01:38:02;;;;;;;2.60;0.80;;;14.90;52.60;;;;;;4977449;28;20036;-80
2021/03/31 01:40:28;;;;;;;5.40;0.68;;;14.90;52.70;;;;;;4956719;28;20046;-80
2021/03/31 01:42:59;;;;;;;1.63;0.70;;;14.90;52.60;;;;;;4934714;28;20049;-80
2021/03/31 01:45:30;;;;;;;1.02;0.30;;;14.90;52.70;;;;;;4950048;28;20515;-80
2021/03/31 01:47:58;;;;;;;1.75;0.73;;;14.80;52.70;;;;;;4939744;28;20034;-80
2021/03/31 01:50:24;;;;;;;2.78;0.98;;;14.80;52.80;;;;;;4972045;28;20447;-80
2021/03/31 01:52:50;;;;;;;1.42;0.73;;;14.80;52.80;;;;;;4952933;28;20027;-80
2021/03/31 01:55:16;;;;;;;3.17;0.40;;;14.80;52.80;;;;;;4970594;28;20050;-81
2021/03/31 01:57:43;;;;;;;1.13;0.88;;;14.80;52.90;;;;;;4951696;29;20543;-80
2021/03/31 02:00:12;;;;;;;1.50;0.60;;;14.70;52.90;;;;;;4941620;28;20435;-80
2021/03/31 02:02:38;;;;;;;1.48;0.70;;;14.70;53.10;;;;;;4969013;28;20030;-80
2021/03/31 02:05:04;;;;;;;2.92;0.90;;;14.70;53.10;;;;;;4947861;28;20194;-80
2021/03/31 02:07:30;;;;;;;3.28;0.93;;;14.70;53.20;;;;;;4949976;28;20039;-82
2021/03/31 02:09:57;;;;;;;2.38;0.73;;;14.70;53.20;;;;;;4953353;28;20050;-80
2021/03/31 02:12:24;;;;;;;1.55;0.75;;;14.60;53.10;;;;;;4952230;28;20050;-81
2021/03/31 02:14:50;;;;;;;2.55;1.25;;;14.60;53.10;;;;;;4936799;28;20038;-80
2021/03/31 02:17:25;;;;;;;1.27;0.43;;;14.60;53.10;;;;;;4974548;28;20125;-81
2021/03/31 02:19:51;;;;;;;2.13;0.63;;;14.60;53.30;;;;;;4986470;28;20399;-81
2021/03/31 02:22:19;;;;;;;2.30;0.40;;;14.60;53.30;;;;;;4988205;28;20439;-80
2021/03/31 02:24:45;;;;;;;2.33;0.73;;;14.50;53.30;;;;;;4989853;28;20030;-81
2021/03/31 02:27:12;;;;;;;1.38;0.45;;;14.50;54.00;;;;;;4986163;28;20037;-82
2021/03/31 02:29:39;;;;;;;1.83;1.00;;;14.40;53.40;;;;;;4970326;28;20038;-82
2021/03/31 02:32:08;;;;;;;1.98;0.73;;;14.40;53.40;;;;;;4986018;28;20039;-81
2021/03/31 02:34:36;;;;;;;1.38;0.70;;;14.40;53.50;;;;;;4970817;28;20421;-81
2021/03/31 02:37:03;;;;;;;2.22;0.95;;;14.40;53.60;;;;;;4991288;28;20051;-81
2021/03/31 02:39:30;;;;;;;2.10;0.73;;;14.30;53.60;;;;;;4976087;28;20045;-81
2021/03/31 02:41:57;;;;;;;3.08;1.27;;;14.30;53.60;;;;;;4991860;28;20022;-80
2021/03/31 02:44:23;;;;;;;5.68;0.50;;;14.30;53.60;;;;;;4992001;28;20042;-80
2021/03/31 02:46:49;;;;;;;1.73;0.63;;;14.30;53.70;;;;;;4993332;28;20034;-80
2021/03/31 02:49:16;;;;;;;2.88;0.90;;;14.30;53.70;;;;;;4995270;28;20039;-82
2021/03/31 02:51:42;;;;;;;1.42;0.45;;;14.20;53.80;;;;;;4978462;28;20073;-80
2021/03/31 02:54:09;;;;;;;1.45;0.90;;;14.20;53.80;;;;;;4995502;28;20034;-80
2021/03/31 02:56:35;;;;;;;2.72;0.38;;;14.20;53.90;;;;;;4995021;28;20038;-80
2021/03/31 02:59:01;;;;;;;3.00;0.65;;;14.10;53.90;;;;;;4995542;28;20041;-80
2021/03/31 03:01:27;;;;;;;1.20;0.40;;;14.10;53.90;;;;;;4979439;28;20041;-80
2021/03/31 03:03:57;;;;;;;0.63;0.20;;;14.10;54.00;;;;;;4995911;28;20472;-80
2021/03/31 03:06:26;;;;;;;1.77;0.28;;;14.10;54.00;;;;;;4996826;28;20039;-82
2021/03/31 03:08:54;;;;;;;1.80;0.77;;;14.10;54.00;;;;;;4994848;28;20057;-81
2021/03/31 03:11:21;;;;;;;0.73;0.28;;;14.10;54.10;;;;;;4995036;28;20046;-80
2021/03/31 03:13:47;;;;;;;3.05;0.82;;;14.00;54.20;;;;;;4995139;28;20388;-80
2021/03/31 03:16:14;;;;;;;3.58;0.90;;;13.90;54.30;;;;;;4994738;28;20050;-82
2021/03/31 03:18:40;;;;;;;1.48;0.65;;;13.80;54.30;;;;;;4978153;28;20033;-80
2021/03/31 03:21:06;;;;;;;0.95;0.50;;;13.80;54.30;;;;;;4994871;28;20053;-80
2021/03/31 03:23:32;;;;;;;1.73;0.60;;;13.80;54.40;;;;;;4994715;28;20033;-81
2021/03/31 03:25:59;;;;;;;2.53;0.90;;;13.80;54.50;;;;;;4995049;28;20510;-80
2021/03/31 03:28:25;;;;;;;1.48;0.57;;;13.80;54.50;;;;;;4996119;28;20368;-80
2021/03/31 03:30:51;;;;;;;0.77;0.40;;;13.70;54.50;;;;;;4977571;28;20046;-80
2021/03/31 03:33:17;;;;;;;2.95;0.45;;;13.70;54.50;;;;;;4995956;28;20026;-81
2021/03/31 03:35:43;;;;;;;3.45;1.13;;;13.70;54.60;;;;;;4996183;28;20479;-81
2021/03/31 03:38:09;;;;;;;3.78;1.20;;;13.60;54.60;;;;;;4994462;28;20286;-80
2021/03/31 03:40:37;;;;;;;0.52;0.25;;;13.60;54.60;;;;;;4994791;28;20041;-80
2021/03/31 03:43:03;;;;;;;2.53;0.55;;;13.60;54.70;;;;;;4993822;28;20026;-80
2021/03/31 03:45:29;;;;;;;0.90;0.25;;;13.60;54.70;;;;;;4995307;28;20046;-80
2021/03/31 03:47:55;;;;;;;2.13;0.50;;;13.60;54.80;;;;;;4994526;28;20022;-80
2021/03/31 03:50:21;;;;;;;1.88;0.60;;;13.50;55.00;;;;;;4994286;28;20742;-80
2021/03/31 03:52:49;;;;;;;2.40;0.28;;;13.40;55.20;;;;;;4995155;28;20018;-80
2021/03/31 03:55:17;;;;;;;1.20;0.40;;;13.30;55.20;;;;;;4994423;28;20038;-80
2021/03/31 03:57:43;;;;;;;1.02;0.35;;;13.30;55.40;;;;;;4992550;28;20026;-80
2021/03/31 04:00:11;;;;;;;1.33;0.40;;;13.20;55.40;;;;;;4993772;28;20035;-81
2021/03/31 04:02:37;;;;;;;5.68;0.65;;;13.20;55.50;;;;;;4995600;28;20026;-80
2021/03/31 04:05:04;;;;;;;0.50;0.20;;;13.10;55.60;;;;;;4995437;28;20034;-80
2021/03/31 04:07:30;;;;;;;1.02;0.57;;;13.10;55.80;;;;;;4993524;28;20475;-80
2021/03/31 04:09:56;;;;;;;7.50;1.30;;;13.00;55.80;;;;;;4993153;28;20038;-80
2021/03/31 04:12:22;;;;;;;5.30;0.93;;;13.00;55.80;;;;;;4994072;28;20464;-81
2021/03/31 04:14:48;;;;;;;1.55;0.63;;;13.00;55.90;;;;;;4994136;28;20041;-80
2021/03/31 04:17:15;;;;;;;2.60;1.13;;;12.90;55.80;;;;;;4994620;28;20054;-80
2021/03/31 04:19:42;;;;;;;1.83;0.55;;;12.90;55.90;;;;;;4993905;28;20033;-80
2021/03/31 04:22:09;;;;;;;4.43;0.55;;;12.80;55.90;;;;;;4992950;28;20026;-80
2021/03/31 04:24:35;;;;;;;5.82;0.57;;;12.80;56.00;;;;;;4960235;28;20042;-80
2021/03/31 04:27:01;;;;;;;2.20;0.75;;;12.80;56.00;;;;;;4994844;28;20029;-80
2021/03/31 04:29:27;;;;;;;3.60;0.75;;;12.80;56.00;;;;;;4993618;28;20034;-80
2021/03/31 04:31:54;;;;;;;0.93;0.28;;;12.80;56.10;;;;;;4993110;28;20435;-80
2021/03/31 04:34:20;;;;;;;0.52;0.15;;;12.70;56.80;;;;;;4995071;28;20049;-80
2021/03/31 04:36:46;;;;;;;0.55;0.30;;;12.70;56.50;;;;;;4992529;28;20034;-80
2021/03/31 04:39:12;;;;;;;2.40;0.95;;;12.60;56.50;;;;;;4994665;28;20034;-80
2021/03/31 04:41:38;;;;;;;1.08;0.43;;;12.60;56.50;;;;;;4993378;28;20061;-81
2021/03/31 04:44:05;;;;;;;3.20;1.30;;;12.60;56.50;;;;;;4994462;28;20042;-81
2021/03/31 04:46:31;;;;;;;1.00;0.63;;;12.60;56.50;;;;;;4994096;28;20037;-82
2021/03/31 04:48:57;;;;;;;1.42;0.60;;;12.60;56.50;;;;;;4993862;28;20384;-80
2021/03/31 04:51:23;;;;;;;11.45;0.70;;;12.60;56.50;;;;;;4994083;28;20042;-80
2021/03/31 04:53:49;;;;;;;1.20;0.60;;;12.60;56.40;;;;;;4993190;28;20045;-80
2021/03/31 04:56:15;;;;;;;1.85;0.98;;;12.60;56.50;;;;;;4993272;28;20034;-80
2021/03/31 04:58:41;;;;;;;1.45;0.47;;;12.70;56.50;;;;;;4993344;28;20030;-80
2021/03/31 05:01:07;;;;;;;3.60;0.98;;;12.70;56.50;;;;;;4993251;28;20027;-80
2021/03/31 05:03:33;;;;;;;1.13;0.45;;;12.60;56.50;;;;;;4994217;28;20034;-80
2021/03/31 05:06:00;;;;;;;1.23;0.60;;;12.70;56.50;;;;;;4993811;28;20030;-80
2021/03/31 05:08:26;;;;;;;1.55;0.70;;;12.70;56.50;;;;;;4992983;28;20037;-80
2021/03/31 05:10:52;;;;;;;3.78;0.55;;;12.70;56.50;;;;;;4993909;28;20046;-80
2021/03/31 05:13:18;;;;;;;2.95;0.63;;;12.70;56.50;;;;;;4994167;28;20030;-81
2021/03/31 05:15:44;;;;;;;1.25;0.40;;;12.70;56.50;;;;;;4992999;28;20026;-81
2021/03/31 05:18:10;;;;;;;1.52;0.93;;;12.70;56.50;;;;;;4994116;28;20026;-80
2021/03/31 05:20:36;;;;;;;2.05;0.50;;;12.70;56.50;;;;;;4993695;28;20029;-80
2021/03/31 05:23:03;;;;;;;2.72;0.70;;;12.70;56.60;;;;;;4992849;28;20030;-81
2021/03/31 05:25:29;;;;;;;2.15;0.50;;;12.70;56.60;;;;;;4994366;28;20057;-81
2021/03/31 05:27:55;;;;;;;2.42;0.45;;;12.80;56.70;;;;;;4989040;28;20034;-81
2021/03/31 05:30:22;;;;;;;2.70;0.90;;;12.70;56.70;;;;;;4993407;28;20030;-81
2021/03/31 05:32:48;;;;;;;1.63;0.30;;;12.70;56.80;;;;;;4992676;28;20022;-80
2021/03/31 05:35:14;;;;;;;0.77;0.40;;;12.60;56.80;;;;;;4992294;28;20026;-81
2021/03/31 05:37:40;;;;;;;1.10;0.40;;;12.60;56.90;;;;;;4992830;28;20037;-80
2021/03/31 05:40:07;;;;;;;1.65;0.93;;;12.60;57.00;;;;;;4992987;28;20039;-81
2021/03/31 05:42:34;;;;;;;3.10;0.82;;;12.60;57.00;;;;;;4992354;28;20042;-80
2021/03/31 05:45:01;;;;;;;3.53;1.00;;;12.60;57.00;;;;;;4992430;28;20050;-80
2021/03/31 05:47:37;;;;;;;4.28;0.80;;;12.60;57.20;;;;;;4992217;28;20038;-80
2021/03/31 05:50:04;;;;;;;1.27;0.60;;;12.50;57.20;;;;;;4992101;28;20076;-80
2021/03/31 05:52:30;;;;;;;1.23;0.50;;;12.50;57.50;;;;;;4992484;28;20042;-81
2021/03/31 05:54:56;;;;;;;2.10;0.80;;;12.40;57.60;;;;;;4993269;28;20043;-80
2021/03/31 05:57:22;;;;;;;2.03;0.75;;;12.30;57.80;;;;;;4976420;28;20046;-80
2021/03/31 05:59:51;;;;;;;1.40;0.68;;;12.30;58.00;;;;;;4992624;28;20026;-80
2021/03/31 06:02:17;;;;;;;9.13;1.25;;;12.20;58.10;;;;;;4991989;28;20376;-80
2021/03/31 06:04:44;;;;;;;0.68;0.38;;;12.20;58.20;;;;;;4992314;28;20037;-80
2021/03/31 06:07:11;;;;;;;1.80;0.70;;;12.10;58.30;;;;;;4992104;28;20057;-80
2021/03/31 06:10:04;;;;;;;1.58;0.60;;;12.10;58.30;;;;;;4991852;28;20041;-79
2021/03/31 06:12:30;;;;;;;1.48;0.40;;;12.10;58.40;;;;;;4991031;28;20061;-80
2021/03/31 06:15:10;;;;;;;1.65;0.65;;;12.10;58.30;;;;;;4992491;28;20037;-80
2021/03/31 06:17:47;;;;;;;2.17;0.70;;;12.10;58.20;;;;;;4991340;28;20488;-80
2021/03/31 06:20:21;;;;;;;6.97;1.35;;;12.20;58.10;;;;;;4976427;28;20046;-80
2021/03/31 06:22:55;;;;;;;1.83;0.95;;;12.30;57.90;;;;;;4995615;28;20542;-80
2021/03/31 06:25:24;;;;;;;3.40;0.95;;;12.40;57.90;;;;;;4996198;28;20552;-80
2021/03/31 06:27:54;;;;;;;0.47;0.20;;;12.40;57.90;;;;;;4995356;28;20034;-80
2021/03/31 06:30:21;;;;;;;0.77;0.50;;;12.40;58.10;;;;;;4995403;28;20038;-81
2021/03/31 06:32:48;;;;;;;1.67;0.85;;;12.40;58.20;;;;;;4995556;28;20054;-81
2021/03/31 06:35:19;;;;;;;1.08;0.55;;;12.50;58.10;;;;;;4996067;28;20054;-80
2021/03/31 06:37:45;;;;;;;1.75;0.73;;;12.60;58.00;;;;;;4995865;28;20047;-80
2021/03/31 06:40:30;;;;;;;0.85;0.57;;;12.70;58.00;;;;;;4996715;28;20380;-82
2021/03/31 06:43:26;;;;;;;1.20;0.43;;;12.90;57.80;;;;;;4991494;28;20053;-80
2021/03/31 06:46:00;;;;;;;0.30;0.28;;;13.00;57.60;;;;;;4995065;28;20043;-81
2021/03/31 06:48:28;;;;;;;1.33;0.80;;;13.20;57.80;;;;;;4996499;28;20046;-80
2021/03/31 06:50:54;;;;;;;0.50;0.30;;;13.20;57.80;;;;;;4996579;28;20022;-80
2021/03/31 06:53:31;;;;;;;4.47;0.40;;;13.30;57.80;;;;;;4995605;28;20038;-80
2021/03/31 06:56:03;;;;;;;0.77;0.50;;;13.30;57.90;;;;;;4996915;28;20030;-81
2021/03/31 06:58:29;;;;;;;1.92;0.80;;;13.40;58.00;;;;;;4963554;28;20042;-80
2021/03/31 07:00:55;;;;;;;1.02;0.20;;;13.40;57.90;;;;;;4989848;28;20031;-80
2021/03/31 07:03:22;;;;;;;0.40;0.30;;;13.50;58.10;;;;;;4995297;28;20034;-80
2021/03/31 07:05:48;;;;;;;0.40;0.20;;;13.50;58.10;;;;;;4995489;28;20030;-80
2021/03/31 07:08:15;;;;;;;0.68;0.35;;;13.60;58.00;;;;;;4996474;28;20053;-80
2021/03/31 07:10:54;;;;;;;1.85;0.52;;;13.60;57.90;;;;;;4996320;28;20045;-80
2021/03/31 07:13:30;;;;;;;2.03;0.30;;;13.80;57.80;;;;;;4996405;28;20478;-80
2021/03/31 07:15:57;;;;;;;1.95;0.45;;;13.90;57.60;;;;;;4989636;28;20391;-80
2021/03/31 07:18:24;;;;;;;2.42;0.77;;;14.10;57.40;;;;;;4995063;28;20037;-80
2021/03/31 07:20:51;;;;;;;1.80;0.60;;;14.20;57.20;;;;;;4995056;28;20394;-80
2021/03/31 07:23:17;;;;;;;3.63;0.50;;;14.40;57.00;;;;;;4995068;28;20041;-80
2021/03/31 07:25:43;;;;;;;1.58;0.43;;;14.60;56.80;;;;;;4995066;28;20022;-80
2021/03/31 07:28:09;;;;;;;1.40;0.20;;;14.70;56.50;;;;;;4995561;28;20027;-80
2021/03/31 07:30:35;;;;;;;1.45;0.70;;;14.90;56.30;;;;;;4977488;28;20138;-80
2021/03/31 07:33:12;;;;;;;0.55;0.20;;;15.10;56.10;;;;;;4978631;28;20415;-80
2021/03/31 07:35:38;;;;;;;2.55;1.05;;;15.30;56.00;;;;;;4995009;28;20030;-80
2021/03/31 07:38:05;;;;;;;0.20;0.10;;;15.40;55.80;;;;;;4994693;28;20041;-80
2021/03/31 07:40:35;;;;;;;4.72;1.08;;;15.50;55.80;;;;;;4994753;28;20052;-80
2021/03/31 07:43:11;;;;;;;2.47;0.90;;;15.50;55.70;;;;;;4995054;28;20391;-81
2021/03/31 07:45:42;;;;;;;1.15;0.43;;;15.70;55.60;;;;;;4977184;28;20050;-80
2021/03/31 07:48:08;;;;;;;1.67;0.65;;;15.80;55.50;;;;;;4978629;28;20031;-80
2021/03/31 07:50:34;;;;;;;1.15;0.43;;;16.00;55.30;;;;;;4994332;28;20030;-81
2021/03/31 07:53:02;;;;;;;3.75;0.82;;;16.20;55.00;;;;;;4995654;28;20065;-80
2021/03/31 07:55:42;;;;;;;1.88;0.65;;;16.30;54.80;;;;;;4980576;28;20038;-80
2021/03/31 07:58:28;;;;;;;1.33;0.50;;;16.40;54.70;;;;;;4991347;28;20495;-80
2021/03/31 08:01:02;;;;;;;1.35;0.55;;;16.50;54.60;;;;;;5009255;28;20068;-80
2021/03/31 08:03:33;;;;;;;0.40;0.10;;;16.50;54.60;;;;;;4994086;28;20053;-80
2021/03/31 08:06:09;;;;;;;1.35;0.50;;;16.60;54.60;;;;;;4994151;28;20030;-81
2021/03/31 08:08:37;;;;;;;1.77;0.40;;;16.70;54.50;;;;;;4995495;28;20399;-80
2021/03/31 08:11:04;;;;;;;0.90;0.52;;;16.80;54.50;;;;;;4994070;28;20399;-81
2021/03/31 08:13:32;;;;;;;4.00;0.75;;;16.90;54.40;;;;;;4993930;28;20052;-82
2021/03/31 08:15:59;;;;;;;1.60;0.55;;;16.90;54.40;;;;;;4993996;28;20038;-80
2021/03/31 08:18:25;;;;;;;1.20;0.52;;;17.10;54.30;;;;;;4994367;28;20050;-80
2021/03/31 08:20:53;;;;;;;1.58;0.68;;;17.10;54.30;;;;;;4994976;28;20033;-81
2021/03/31 08:23:48;;;;;;;0.85;0.20;;;17.20;54.30;;;;;;4994994;28;20030;-81
2021/03/31 08:26:31;;;;;;;3.00;0.85;;;17.30;54.30;;;;;;4993662;28;20046;-80
2021/03/31 08:29:01;;;;;;;1.30;0.65;;;17.40;54.10;;;;;;4995141;28;20116;-81
2021/03/31 08:31:28;;;;;;;4.28;0.60;;;17.60;54.10;;;;;;4979200;28;20042;-81
2021/03/31 08:33:55;;;;;;;2.53;0.68;;;17.80;53.80;;;;;;4992862;28;20040;-81
2021/03/31 08:36:21;;;;;;;5.15;0.70;;;18.00;53.40;;;;;;4993773;28;20034;-81
2021/03/31 08:38:55;;;;;;;1.45;0.70;;;18.30;53.10;;;;;;4994821;28;20038;-81
2021/03/31 08:41:22;;;;;;;1.15;0.60;;;18.50;52.80;;;;;;4993469;28;20037;-81
2021/03/31 08:43:49;;;;;;;6.03;0.45;;;18.70;52.50;;;;;;4992772;28;20057;-81
2021/03/31 08:46:35;;;;;;;1.27;0.80;;;19.00;52.20;;;;;;4993138;28;20402;-81
2021/03/31 08:49:01;;;;;;;2.10;0.57;;;19.20;51.90;;;;;;4990489;28;20049;-81
2021/03/31 08:51:27;;;;;;;7.10;0.55;;;19.40;51.70;;;;;;4994559;28;20034;-81
2021/03/31 08:53:53;;;;;;;1.88;0.28;;;19.50;51.60;;;;;;4993347;28;20027;-81
2021/03/31 08:56:21;;;;;;;2.60;0.40;;;19.70;51.40;;;;;;4993317;28;20042;-82
2021/03/31 08:58:48;;;;;;;0.98;0.38;;;19.80;51.30;;;;;;4994190;28;20026;-82
2021/03/31 09:01:30;;;;;;;1.55;0.40;;;19.90;51.20;;;;;;4992853;28;20114;-82
2021/03/31 09:04:18;;;;;;;1.00;0.25;;;20.00;51.10;;;;;;4988581;28;20054;-81
2021/03/31 09:06:44;;;;;;;0.85;0.32;;;20.10;50.90;;;;;;4974978;28;20031;-81
2021/03/31 09:09:10;;;;;;;1.75;0.40;;;20.30;50.80;;;;;;4994110;28;20038;-80
2021/03/31 09:11:36;;;;;;;0.52;0.08;;;20.50;50.60;;;;;;4992667;28;20414;-81
2021/03/31 09:14:35;;;;;;;1.15;0.40;;;20.70;50.30;;;;;;4994053;28;20061;-81
2021/03/31 09:17:02;;;;;;;1.02;0.30;;;21.00;49.90;;;;;;4972089;28;20042;-82
2021/03/31 09:19:33;;;;;;;0.75;0.35;;;21.20;49.40;;;;;;4957364;28;20038;-81
2021/03/31 09:22:26;;;;;;;0.50;0.30;;;21.30;49.20;;;;;;4968357;28;20527;-81
2021/03/31 09:24:54;;;;;;;0.63;0.15;;;21.60;48.90;;;;;;4965175;28;20031;-81
2021/03/31 09:27:31;;;;;;;1.13;0.40;;;21.80;48.60;;;;;;4971955;28;20499;-81
2021/03/31 09:30:01;;;;;;;0.03;0.00;;;22.10;48.20;;;;;;4947215;29;20042;-82
2021/03/31 09:34:53;;;;;;;0.08;0.00;;;22.20;47.50;;;;;;4976406;28;20027;-81
2021/03/31 09:37:19;;;;;;;4.57;0.10;;;22.20;47.30;;;;;;4972007;28;20078;-81
2021/03/31 09:39:56;;;;;;;0.38;0.17;;;22.10;46.90;;;;;;4971637;28;20038;-82
2021/03/31 09:42:24;;;;;;;0.32;0.20;;;22.10;46.90;;;;;;4959934;28;20039;-82
2021/03/31 09:44:51;;;;;;;0.80;0.30;;;22.10;46.40;;;;;;4951659;28;20042;-82
2021/03/31 09:47:19;;;;;;;1.05;0.30;;;22.10;46.50;;;;;;4970587;28;20424;-81
2021/03/31 09:49:45;;;;;;;0.28;0.00;;;22.30;46.50;;;;;;4972249;28;20526;-81
2021/03/31 09:52:12;;;;;;;0.65;0.20;;;22.60;46.20;;;;;;4976556;28;20058;-81
2021/03/31 09:54:45;;;;;;;0.52;0.17;;;22.90;45.60;;;;;;4975735;28;20495;-81
2021/03/31 09:57:12;;;;;;;7.47;0.38;;;23.20;45.20;;;;;;4995122;28;20050;-81
2021/03/31 09:59:39;;;;;;;7.68;0.40;;;23.40;45.00;;;;;;4996653;28;20018;-81
2021/03/31 10:02:06;;;;;;;1.08;0.38;;;23.60;44.60;;;;;;4995880;28;20049;-82
2021/03/31 10:04:36;;;;;;;0.20;0.13;;;23.60;44.40;;;;;;4980652;28;20038;-84
2021/03/31 10:07:06;;;;;;;0.52;0.17;;;23.60;44.20;;;;;;4995687;28;20047;-81
2021/03/31 10:09:48;;;;;;;0.03;0.00;;;23.50;44.10;;;;;;4997411;28;20472;-82
2021/03/31 10:12:26;;;;;;;0.10;0.00;;;23.50;44.10;;;;;;4977006;28;20054;-86
2021/03/31 10:14:55;;;;;;;9.25;0.20;;;23.50;44.00;;;;;;4993370;28;20034;-82
2021/03/31 10:17:22;;;;;;;3.80;0.30;;;23.40;43.60;;;;;;4995735;28;20049;-82
2021/03/31 10:19:49;;;;;;;1.42;0.10;;;23.40;43.80;;;;;;4997411;28;20026;-81
2021/03/31 10:22:15;;;;;;;2.38;0.40;;;23.50;43.70;;;;;;4995483;28;20124;-82
2021/03/31 10:24:43;;;;;;;0.32;0.25;;;23.60;43.50;;;;;;4994938;28;20038;-84
2021/03/31 10:27:10;;;;;;;1.45;0.38;;;23.70;43.40;;;;;;4996096;28;20038;-81
2021/03/31 10:29:44;;;;;;;1.73;0.13;;;23.90;43.30;;;;;;4997187;28;20022;-81
2021/03/31 10:32:11;;;;;;;0.52;0.10;;;24.10;43.10;;;;;;4995476;28;20515;-81
2021/03/31 10:34:48;;;;;;;0.30;0.05;;;24.30;42.70;;;;;;4995998;28;20476;-81
2021/03/31 10:37:52;;;;;;;0.73;0.10;;;24.50;42.50;;;;;;4997408;28;20046;-81
2021/03/31 10:40:28;;;;;;;0.70;0.17;;;24.60;42.10;;;;;;4992480;28;20046;-81
2021/03/31 10:48:22;;;;;;;1.55;0.70;;;24.80;41.70;;;;;;4996174;28;20042;-81
2021/03/31 10:53:16;;;;;;;0.90;0.28;;;24.90;41.40;;;;;;4998249;28;20069;-82
2021/03/31 10:55:44;;;;;;;2.15;0.20;;;24.90;41.50;;;;;;4995441;28;20030;-83
2021/03/31 10:58:11;;;;;;;0.30;0.10;;;24.90;41.50;;;;;;4996417;28;20041;-82
2021/03/31 11:00:37;;;;;;;0.55;0.20;;;24.90;41.30;;;;;;4995639;28;20030;-82
2021/03/31 11:03:04;;;;;;;0.52;0.20;;;24.90;41.30;;;;;;4996632;28;20038;-82
2021/03/31 11:05:30;;;;;;;0.63;0.20;;;24.90;41.20;;;;;;4997105;28;20033;-81
2021/03/31 11:07:57;;;;;;;5.10;0.30;;;25.00;41.30;;;;;;4995815;28;20038;-82
2021/03/31 11:10:23;;;;;;;0.15;0.03;;;25.00;41.10;;;;;;4996650;28;20038;-82
2021/03/31 11:12:49;;;;;;;2.67;0.22;;;25.00;41.30;;;;;;4995604;28;20042;-81
2021/03/31 11:15:17;;;;;;;0.77;0.38;;;25.00;40.90;;;;;;4995868;28;20030;-83
2021/03/31 11:25:48;;;;;;;0.93;0.20;;;25.30;40.90;;;;;;4982108;28;20030;-82
2021/03/31 11:28:14;;;;;;;0.60;0.13;;;25.40;40.60;;;;;;4995031;28;20487;-84
2021/03/31 11:30:40;;;;;;;1.20;0.52;;;25.40;40.40;;;;;;4992901;28;20033;-82
2021/03/31 11:33:06;;;;;;;0.20;0.00;;;25.30;40.60;;;;;;4994825;28;20034;-81
2021/03/31 11:35:32;;;;;;;1.50;0.20;;;25.40;40.60;;;;;;4995965;28;20074;-82
2021/03/31 11:37:58;;;;;;;2.05;0.20;;;25.30;40.50;;;;;;4995811;28;20506;-82
2021/03/31 11:40:25;;;;;;;0.68;0.30;;;25.30;40.60;;;;;;4995693;28;20030;-82
2021/03/31 11:42:51;;;;;;;4.43;0.20;;;25.30;40.50;;;;;;4995353;28;20033;-82
2021/03/31 11:45:17;;;;;;;5.38;0.38;;;25.60;40.50;;;;;;4995170;28;20062;-82
2021/03/31 11:47:43;;;;;;;0.28;0.10;;;25.70;40.30;;;;;;4995578;28;20399;-82
2021/03/31 11:50:10;;;;;;;4.47;0.38;;;25.90;40.00;;;;;;4995826;28;20030;-83
2021/03/31 11:52:36;;;;;;;0.88;0.10;;;26.00;39.80;;;;;;4994105;28;20045;-82
2021/03/31 11:55:02;;;;;;;2.03;0.30;;;26.10;39.80;;;;;;4993693;28;20031;-83
2021/03/31 11:57:28;;;;;;;0.30;0.10;;;26.10;39.70;;;;;;4995290;28;20387;-82
2021/03/31 11:59:55;;;;;;;0.20;0.08;;;26.20;39.60;;;;;;4995529;28;20035;-82
2021/03/31 12:02:21;;;;;;;0.60;0.15;;;26.10;39.30;;;;;;4994023;28;20447;-82
2021/03/31 12:04:49;;;;;;;0.70;0.30;;;26.10;39.60;;;;;;4994307;28;20026;-82
2021/03/31 12:07:16;;;;;;;0.30;0.15;;;26.10;39.50;;;;;;4995159;28;20030;-82
2021/03/31 12:09:42;;;;;;;0.85;0.32;;;26.20;39.50;;;;;;4993305;28;20019;-82
2021/03/31 12:12:09;;;;;;;0.20;0.10;;;26.20;39.50;;;;;;4995121;28;20038;-81
2021/03/31 12:14:35;;;;;;;0.52;0.20;;;26.10;39.50;;;;;;4995521;28;20041;-82
2021/03/31 12:17:03;;;;;;;1.35;0.30;;;26.00;39.50;;;;;;4994988;28;20514;-83
2021/03/31 12:19:29;;;;;;;0.90;0.45;;;25.90;39.50;;;;;;4978774;28;20030;-82
2021/03/31 12:21:55;;;;;;;0.60;0.30;;;25.90;40.30;;;;;;4992981;28;20038;-82
2021/03/31 12:24:22;;;;;;;0.45;0.20;;;25.90;39.70;;;;;;4995299;28;20495;-82
2021/03/31 12:26:49;;;;;;;0.25;0.10;;;25.90;39.60;;;;;;4993855;28;20034;-82
2021/03/31 12:29:16;;;;;;;0.25;0.10;;;26.10;39.60;;;;;;4994833;28;20026;-81
2021/03/31 12:31:42;;;;;;;1.20;0.10;;;26.10;39.20;;;;;;4993474;28;20030;-82
2021/03/31 12:34:08;;;;;;;1.85;0.20;;;26.00;39.30;;;;;;4994226;28;20418;-81
2021/03/31 12:36:35;;;;;;;1.75;0.20;;;26.00;39.30;;;;;;4994299;28;20371;-82
2021/03/31 12:39:02;;;;;;;2.20;0.20;;;25.90;39.10;;;;;;4993573;28;20034;-82
2021/03/31 12:41:30;;;;;;;0.45;0.20;;;25.90;39.00;;;;;;4977803;28;20041;-81
2021/03/31 12:43:56;;;;;;;2.22;0.22;;;25.90;39.00;;;;;;4994633;28;20018;-82
2021/03/31 12:46:23;;;;;;;2.85;0.10;;;26.00;38.90;;;;;;4994297;28;20038;-82
2021/03/31 12:48:49;;;;;;;3.03;0.40;;;26.10;38.80;;;;;;4993487;28;20046;-82
2021/03/31 12:51:19;;;;;;;1.52;0.25;;;26.20;38.60;;;;;;4994480;28;20035;-82
2021/03/31 12:53:52;;;;;;;0.25;0.10;;;26.20;38.60;;;;;;4992254;28;20057;-82
2021/03/31 12:56:20;;;;;;;1.23;0.65;;;26.20;38.60;;;;;;4994481;28;20034;-82
2021/03/31 12:58:46;;;;;;;1.85;0.60;;;26.30;38.20;;;;;;4993275;28;20037;-82
2021/03/31 13:01:21;;;;;;;0.90;0.10;;;26.20;38.10;;;;;;4993754;28;20031;-81
2021/03/31 13:03:47;;;;;;;0.30;0.20;;;26.10;37.90;;;;;;4992363;28;20399;-82
2021/03/31 13:06:13;;;;;;;0.68;0.10;;;26.10;38.00;;;;;;4993109;28;20027;-80
2021/03/31 13:08:39;;;;;;;1.35;0.35;;;26.10;37.80;;;;;;4994282;28;20034;-81
2021/03/31 13:11:05;;;;;;;0.88;0.20;;;26.10;37.40;;;;;;4994124;28;20037;-82
2021/03/31 13:16:14;;;;;;;1.25;0.30;;;26.20;37.20;;;;;;4993473;28;20034;-82
2021/03/31 13:31:58;;;;;;;0.88;0.47;;;26.50;36.00;;;;;;4994360;28;20027;-82